sensor_id;sensor_type;location;lat;lon;timestamp;P1;durP1;ratioP1;P2;durP2;ratioP2
29202;SDS011;16245;51.170;4.884;2023-03-19T00:02:21;6.10;;;5.15;;
29202;SDS011;16245;51.170;4.884;2023-03-19T00:04:47;8.18;;;6.00;;
29202;SDS011;16245;51.170;4.884;2023-03-19T00:07:13;8.98;;;6.40;;
29202;SDS011;16245;51.170;4.884;2023-03-19T00:09:39;7.55;;;6.25;;
29202;SDS011;16245;51.170;4.884;2023-03-19T00:12:06;8.50;;;6.80;;
29202;SDS011;16245;51.170;4.884;2023-03-19T00:14:32;7.60;;;6.28;;
29202;SDS011;16245;51.170;4.884;2023-03-19T00:16:58;8.57;;;7.03;;
29202;SDS011;16245;51.170;4.884;2023-03-19T00:19:23;9.75;;;7.25;;
29202;SDS011;16245;51.170;4.884;2023-03-19T00:21:49;9.43;;;7.20;;
29202;SDS011;16245;51.170;4.884;2023-03-19T00:24:15;9.75;;;7.38;;
29202;SDS011;16245;51.170;4.884;2023-03-19T00:26:41;8.43;;;7.15;;
29202;SDS011;16245;51.170;4.884;2023-03-19T00:29:07;9.82;;;7.72;;
29202;SDS011;16245;51.170;4.884;2023-03-19T00:31:33;9.18;;;8.10;;
29202;SDS011;16245;51.170;4.884;2023-03-19T00:33:59;13.20;;;7.70;;
29202;SDS011;16245;51.170;4.884;2023-03-19T00:36:26;9.80;;;6.93;;
29202;SDS011;16245;51.170;4.884;2023-03-19T00:38:52;8.93;;;7.47;;
29202;SDS011;16245;51.170;4.884;2023-03-19T00:41:18;11.00;;;8.27;;
29202;SDS011;16245;51.170;4.884;2023-03-19T00:43:45;11.90;;;7.53;;
29202;SDS011;16245;51.170;4.884;2023-03-19T00:46:11;8.88;;;7.93;;
29202;SDS011;16245;51.170;4.884;2023-03-19T00:48:38;9.35;;;7.57;;
29202;SDS011;16245;51.170;4.884;2023-03-19T00:51:05;13.15;;;7.88;;
29202;SDS011;16245;51.170;4.884;2023-03-19T00:53:35;10.02;;;7.85;;
29202;SDS011;16245;51.170;4.884;2023-03-19T00:56:06;12.52;;;7.55;;
29202;SDS011;16245;51.170;4.884;2023-03-19T00:58:33;9.82;;;7.18;;
29202;SDS011;16245;51.170;4.884;2023-03-19T01:00:58;10.60;;;7.38;;
29202;SDS011;16245;51.170;4.884;2023-03-19T01:03:24;13.10;;;7.63;;
29202;SDS011;16245;51.170;4.884;2023-03-19T01:05:50;12.98;;;7.32;;
29202;SDS011;16245;51.170;4.884;2023-03-19T01:08:16;9.75;;;6.85;;
29202;SDS011;16245;51.170;4.884;2023-03-19T01:10:43;12.15;;;7.20;;
29202;SDS011;16245;51.170;4.884;2023-03-19T01:13:09;8.45;;;6.88;;
29202;SDS011;16245;51.170;4.884;2023-03-19T01:15:36;8.73;;;6.40;;
29202;SDS011;16245;51.170;4.884;2023-03-19T01:18:02;9.85;;;6.50;;
29202;SDS011;16245;51.170;4.884;2023-03-19T01:20:28;8.13;;;6.15;;
29202;SDS011;16245;51.170;4.884;2023-03-19T01:22:54;8.13;;;5.88;;
29202;SDS011;16245;51.170;4.884;2023-03-19T01:25:20;6.00;;;5.28;;
29202;SDS011;16245;51.170;4.884;2023-03-19T01:27:46;7.85;;;5.88;;
29202;SDS011;16245;51.170;4.884;2023-03-19T01:30:11;6.40;;;5.35;;
29202;SDS011;16245;51.170;4.884;2023-03-19T01:32:38;6.78;;;4.82;;
29202;SDS011;16245;51.170;4.884;2023-03-19T01:35:04;7.72;;;5.07;;
29202;SDS011;16245;51.170;4.884;2023-03-19T01:37:30;6.63;;;4.55;;
29202;SDS011;16245;51.170;4.884;2023-03-19T01:39:56;8.90;;;5.55;;
29202;SDS011;16245;51.170;4.884;2023-03-19T01:42:21;6.18;;;4.70;;
29202;SDS011;16245;51.170;4.884;2023-03-19T01:44:47;10.25;;;4.28;;
29202;SDS011;16245;51.170;4.884;2023-03-19T01:47:33;5.28;;;4.07;;
29202;SDS011;16245;51.170;4.884;2023-03-19T01:50:02;5.88;;;4.00;;
29202;SDS011;16245;51.170;4.884;2023-03-19T01:52:29;5.75;;;4.13;;
29202;SDS011;16245;51.170;4.884;2023-03-19T01:54:58;7.60;;;4.05;;
29202;SDS011;16245;51.170;4.884;2023-03-19T01:57:27;6.05;;;4.13;;
29202;SDS011;16245;51.170;4.884;2023-03-19T01:59:55;5.63;;;3.70;;
29202;SDS011;16245;51.170;4.884;2023-03-19T02:02:32;5.78;;;3.78;;
29202;SDS011;16245;51.170;4.884;2023-03-19T02:07:31;7.70;;;4.18;;
29202;SDS011;16245;51.170;4.884;2023-03-19T02:09:59;5.78;;;3.70;;
29202;SDS011;16245;51.170;4.884;2023-03-19T02:12:28;4.57;;;3.63;;
29202;SDS011;16245;51.170;4.884;2023-03-19T02:14:54;6.95;;;3.85;;
29202;SDS011;16245;51.170;4.884;2023-03-19T02:17:20;5.03;;;4.20;;
29202;SDS011;16245;51.170;4.884;2023-03-19T02:22:13;5.80;;;4.25;;
29202;SDS011;16245;51.170;4.884;2023-03-19T02:24:44;5.57;;;3.40;;
29202;SDS011;16245;51.170;4.884;2023-03-19T02:27:17;7.13;;;4.40;;
29202;SDS011;16245;51.170;4.884;2023-03-19T02:29:43;5.47;;;4.10;;
29202;SDS011;16245;51.170;4.884;2023-03-19T02:32:09;9.68;;;4.55;;
29202;SDS011;16245;51.170;4.884;2023-03-19T02:34:38;4.82;;;3.70;;
29202;SDS011;16245;51.170;4.884;2023-03-19T02:39:56;6.63;;;4.90;;
29202;SDS011;16245;51.170;4.884;2023-03-19T02:42:32;5.57;;;4.25;;
29202;SDS011;16245;51.170;4.884;2023-03-19T02:44:58;6.40;;;4.40;;
29202;SDS011;16245;51.170;4.884;2023-03-19T02:47:24;4.43;;;4.05;;
29202;SDS011;16245;51.170;4.884;2023-03-19T02:49:50;5.43;;;4.57;;
29202;SDS011;16245;51.170;4.884;2023-03-19T02:52:16;6.97;;;4.55;;
29202;SDS011;16245;51.170;4.884;2023-03-19T02:54:42;6.25;;;4.32;;
29202;SDS011;16245;51.170;4.884;2023-03-19T02:57:08;7.97;;;4.50;;
29202;SDS011;16245;51.170;4.884;2023-03-19T02:59:34;4.65;;;4.00;;
29202;SDS011;16245;51.170;4.884;2023-03-19T03:02:00;6.07;;;4.65;;
29202;SDS011;16245;51.170;4.884;2023-03-19T03:04:25;6.28;;;4.70;;
29202;SDS011;16245;51.170;4.884;2023-03-19T03:06:51;8.18;;;4.80;;
29202;SDS011;16245;51.170;4.884;2023-03-19T03:09:17;6.40;;;5.10;;
29202;SDS011;16245;51.170;4.884;2023-03-19T03:11:43;6.82;;;4.68;;
29202;SDS011;16245;51.170;4.884;2023-03-19T03:14:09;6.75;;;5.00;;
29202;SDS011;16245;51.170;4.884;2023-03-19T03:16:36;6.20;;;4.28;;
29202;SDS011;16245;51.170;4.884;2023-03-19T03:19:02;6.53;;;4.93;;
29202;SDS011;16245;51.170;4.884;2023-03-19T03:21:28;7.18;;;4.63;;
29202;SDS011;16245;51.170;4.884;2023-03-19T03:23:54;6.95;;;5.07;;
29202;SDS011;16245;51.170;4.884;2023-03-19T03:26:20;6.03;;;4.63;;
29202;SDS011;16245;51.170;4.884;2023-03-19T03:28:46;6.15;;;4.75;;
29202;SDS011;16245;51.170;4.884;2023-03-19T03:31:11;6.97;;;5.30;;
29202;SDS011;16245;51.170;4.884;2023-03-19T03:33:38;8.40;;;4.60;;
29202;SDS011;16245;51.170;4.884;2023-03-19T03:36:04;4.82;;;4.43;;
29202;SDS011;16245;51.170;4.884;2023-03-19T03:38:31;8.20;;;4.93;;
29202;SDS011;16245;51.170;4.884;2023-03-19T03:40:56;6.95;;;4.38;;
29202;SDS011;16245;51.170;4.884;2023-03-19T03:43:23;8.57;;;5.13;;
29202;SDS011;16245;51.170;4.884;2023-03-19T03:45:49;5.40;;;4.40;;
29202;SDS011;16245;51.170;4.884;2023-03-19T03:48:15;5.70;;;5.20;;
29202;SDS011;16245;51.170;4.884;2023-03-19T03:50:42;5.32;;;4.85;;
29202;SDS011;16245;51.170;4.884;2023-03-19T03:53:08;5.28;;;4.68;;
29202;SDS011;16245;51.170;4.884;2023-03-19T03:55:36;7.43;;;4.47;;
29202;SDS011;16245;51.170;4.884;2023-03-19T03:58:01;5.90;;;5.03;;
29202;SDS011;16245;51.170;4.884;2023-03-19T04:00:27;8.02;;;4.68;;
29202;SDS011;16245;51.170;4.884;2023-03-19T04:02:53;6.47;;;5.10;;
29202;SDS011;16245;51.170;4.884;2023-03-19T04:05:19;9.52;;;5.43;;
29202;SDS011;16245;51.170;4.884;2023-03-19T04:07:45;6.38;;;5.25;;
29202;SDS011;16245;51.170;4.884;2023-03-19T04:10:11;6.93;;;5.45;;
29202;SDS011;16245;51.170;4.884;2023-03-19T04:12:38;7.90;;;5.63;;
29202;SDS011;16245;51.170;4.884;2023-03-19T04:15:05;8.40;;;5.80;;
29202;SDS011;16245;51.170;4.884;2023-03-19T04:17:33;7.70;;;5.53;;
29202;SDS011;16245;51.170;4.884;2023-03-19T04:19:59;6.35;;;5.32;;
29202;SDS011;16245;51.170;4.884;2023-03-19T04:22:26;6.75;;;5.57;;
29202;SDS011;16245;51.170;4.884;2023-03-19T04:24:52;7.35;;;5.88;;
29202;SDS011;16245;51.170;4.884;2023-03-19T04:27:19;7.07;;;6.25;;
29202;SDS011;16245;51.170;4.884;2023-03-19T04:29:44;8.85;;;6.10;;
29202;SDS011;16245;51.170;4.884;2023-03-19T04:32:10;7.55;;;6.25;;
29202;SDS011;16245;51.170;4.884;2023-03-19T04:34:36;8.25;;;6.15;;
29202;SDS011;16245;51.170;4.884;2023-03-19T04:37:02;15.60;;;7.90;;
29202;SDS011;16245;51.170;4.884;2023-03-19T04:39:28;8.57;;;7.55;;
29202;SDS011;16245;51.170;4.884;2023-03-19T04:41:54;9.90;;;7.68;;
29202;SDS011;16245;51.170;4.884;2023-03-19T04:44:19;11.98;;;8.43;;
29202;SDS011;16245;51.170;4.884;2023-03-19T04:46:45;10.02;;;8.70;;
29202;SDS011;16245;51.170;4.884;2023-03-19T04:49:11;12.43;;;8.50;;
29202;SDS011;16245;51.170;4.884;2023-03-19T04:51:37;9.48;;;7.45;;
29202;SDS011;16245;51.170;4.884;2023-03-19T04:54:03;9.43;;;7.63;;
29202;SDS011;16245;51.170;4.884;2023-03-19T04:56:30;10.90;;;8.40;;
29202;SDS011;16245;51.170;4.884;2023-03-19T04:58:56;10.68;;;7.95;;
29202;SDS011;16245;51.170;4.884;2023-03-19T05:01:22;13.95;;;8.52;;
29202;SDS011;16245;51.170;4.884;2023-03-19T05:03:48;12.43;;;8.52;;
29202;SDS011;16245;51.170;4.884;2023-03-19T05:06:14;13.80;;;7.97;;
29202;SDS011;16245;51.170;4.884;2023-03-19T05:08:41;10.93;;;9.55;;
29202;SDS011;16245;51.170;4.884;2023-03-19T05:11:07;11.55;;;10.00;;
29202;SDS011;16245;51.170;4.884;2023-03-19T05:13:33;18.83;;;11.15;;
29202;SDS011;16245;51.170;4.884;2023-03-19T05:15:59;13.30;;;10.60;;
29202;SDS011;16245;51.170;4.884;2023-03-19T05:18:25;13.27;;;10.25;;
29202;SDS011;16245;51.170;4.884;2023-03-19T05:20:51;15.73;;;10.75;;
29202;SDS011;16245;51.170;4.884;2023-03-19T05:23:18;12.50;;;10.80;;
29202;SDS011;16245;51.170;4.884;2023-03-19T05:25:44;15.00;;;11.45;;
29202;SDS011;16245;51.170;4.884;2023-03-19T05:28:10;14.00;;;10.70;;
29202;SDS011;16245;51.170;4.884;2023-03-19T05:30:36;13.52;;;10.75;;
29202;SDS011;16245;51.170;4.884;2023-03-19T05:33:02;17.02;;;11.07;;
29202;SDS011;16245;51.170;4.884;2023-03-19T05:35:28;17.20;;;11.10;;
29202;SDS011;16245;51.170;4.884;2023-03-19T05:37:54;14.18;;;11.60;;
29202;SDS011;16245;51.170;4.884;2023-03-19T05:40:20;13.35;;;12.00;;
29202;SDS011;16245;51.170;4.884;2023-03-19T05:42:47;15.32;;;11.60;;
29202;SDS011;16245;51.170;4.884;2023-03-19T05:45:14;16.27;;;12.27;;
29202;SDS011;16245;51.170;4.884;2023-03-19T05:47:41;14.35;;;12.05;;
29202;SDS011;16245;51.170;4.884;2023-03-19T05:50:07;14.75;;;12.32;;
29202;SDS011;16245;51.170;4.884;2023-03-19T05:52:34;13.10;;;11.70;;
29202;SDS011;16245;51.170;4.884;2023-03-19T05:55:00;16.05;;;12.68;;
29202;SDS011;16245;51.170;4.884;2023-03-19T05:57:26;16.77;;;13.73;;
29202;SDS011;16245;51.170;4.884;2023-03-19T05:59:52;15.90;;;13.93;;
29202;SDS011;16245;51.170;4.884;2023-03-19T06:02:17;18.10;;;13.30;;
29202;SDS011;16245;51.170;4.884;2023-03-19T06:04:43;17.88;;;13.00;;
29202;SDS011;16245;51.170;4.884;2023-03-19T06:07:09;15.18;;;13.32;;
29202;SDS011;16245;51.170;4.884;2023-03-19T06:09:35;16.20;;;13.32;;
29202;SDS011;16245;51.170;4.884;2023-03-19T06:12:01;15.85;;;12.60;;
29202;SDS011;16245;51.170;4.884;2023-03-19T06:14:26;16.23;;;12.77;;
29202;SDS011;16245;51.170;4.884;2023-03-19T06:16:52;15.35;;;12.88;;
29202;SDS011;16245;51.170;4.884;2023-03-19T06:19:18;16.27;;;12.77;;
29202;SDS011;16245;51.170;4.884;2023-03-19T06:21:44;15.00;;;13.00;;
29202;SDS011;16245;51.170;4.884;2023-03-19T06:24:09;19.23;;;14.00;;
29202;SDS011;16245;51.170;4.884;2023-03-19T06:26:35;18.58;;;13.68;;
29202;SDS011;16245;51.170;4.884;2023-03-19T06:29:01;19.08;;;14.85;;
29202;SDS011;16245;51.170;4.884;2023-03-19T06:31:27;20.17;;;15.85;;
29202;SDS011;16245;51.170;4.884;2023-03-19T06:33:53;21.52;;;15.43;;
29202;SDS011;16245;51.170;4.884;2023-03-19T06:36:20;22.58;;;14.40;;
29202;SDS011;16245;51.170;4.884;2023-03-19T06:38:46;18.63;;;13.98;;
29202;SDS011;16245;51.170;4.884;2023-03-19T06:41:11;19.35;;;15.10;;
29202;SDS011;16245;51.170;4.884;2023-03-19T06:43:37;21.27;;;14.48;;
29202;SDS011;16245;51.170;4.884;2023-03-19T06:46:06;18.15;;;14.18;;
29202;SDS011;16245;51.170;4.884;2023-03-19T06:48:33;20.85;;;14.90;;
29202;SDS011;16245;51.170;4.884;2023-03-19T06:50:59;18.50;;;13.15;;
29202;SDS011;16245;51.170;4.884;2023-03-19T06:53:25;16.77;;;12.55;;
29202;SDS011;16245;51.170;4.884;2023-03-19T06:55:51;15.82;;;12.95;;
29202;SDS011;16245;51.170;4.884;2023-03-19T06:58:17;21.10;;;12.65;;
29202;SDS011;16245;51.170;4.884;2023-03-19T07:00:43;19.42;;;13.02;;
29202;SDS011;16245;51.170;4.884;2023-03-19T07:03:09;18.80;;;14.15;;
29202;SDS011;16245;51.170;4.884;2023-03-19T07:05:35;18.27;;;12.80;;
29202;SDS011;16245;51.170;4.884;2023-03-19T07:08:00;15.98;;;13.05;;
29202;SDS011;16245;51.170;4.884;2023-03-19T07:10:26;17.60;;;13.38;;
29202;SDS011;16245;51.170;4.884;2023-03-19T07:12:52;18.13;;;12.35;;
29202;SDS011;16245;51.170;4.884;2023-03-19T07:15:18;14.93;;;11.25;;
29202;SDS011;16245;51.170;4.884;2023-03-19T07:17:45;16.27;;;12.52;;
29202;SDS011;16245;51.170;4.884;2023-03-19T07:20:12;17.90;;;11.68;;
29202;SDS011;16245;51.170;4.884;2023-03-19T07:22:38;18.33;;;12.55;;
29202;SDS011;16245;51.170;4.884;2023-03-19T07:25:04;15.40;;;12.15;;
29202;SDS011;16245;51.170;4.884;2023-03-19T07:27:30;14.77;;;11.00;;
29202;SDS011;16245;51.170;4.884;2023-03-19T07:29:56;18.08;;;11.25;;
29202;SDS011;16245;51.170;4.884;2023-03-19T07:32:22;13.57;;;10.68;;
29202;SDS011;16245;51.170;4.884;2023-03-19T07:34:48;17.55;;;11.50;;
29202;SDS011;16245;51.170;4.884;2023-03-19T07:37:13;15.38;;;10.45;;
29202;SDS011;16245;51.170;4.884;2023-03-19T07:39:39;15.45;;;9.95;;
29202;SDS011;16245;51.170;4.884;2023-03-19T07:42:05;17.35;;;10.85;;
29202;SDS011;16245;51.170;4.884;2023-03-19T07:44:31;14.40;;;9.77;;
29202;SDS011;16245;51.170;4.884;2023-03-19T07:46:57;15.77;;;10.10;;
29202;SDS011;16245;51.170;4.884;2023-03-19T07:49:22;15.18;;;10.00;;
29202;SDS011;16245;51.170;4.884;2023-03-19T07:51:48;15.30;;;9.98;;
29202;SDS011;16245;51.170;4.884;2023-03-19T07:54:14;15.02;;;9.45;;
29202;SDS011;16245;51.170;4.884;2023-03-19T07:56:40;15.85;;;8.77;;
29202;SDS011;16245;51.170;4.884;2023-03-19T07:59:05;15.13;;;7.63;;
29202;SDS011;16245;51.170;4.884;2023-03-19T08:01:31;18.75;;;7.13;;
29202;SDS011;16245;51.170;4.884;2023-03-19T08:03:57;11.32;;;6.20;;
29202;SDS011;16245;51.170;4.884;2023-03-19T08:06:23;15.60;;;5.78;;
29202;SDS011;16245;51.170;4.884;2023-03-19T08:08:48;7.82;;;5.47;;
29202;SDS011;16245;51.170;4.884;2023-03-19T08:11:14;10.43;;;5.10;;
29202;SDS011;16245;51.170;4.884;2023-03-19T08:13:40;8.55;;;5.30;;
29202;SDS011;16245;51.170;4.884;2023-03-19T08:16:06;10.48;;;4.78;;
29202;SDS011;16245;51.170;4.884;2023-03-19T08:18:32;8.63;;;4.60;;
29202;SDS011;16245;51.170;4.884;2023-03-19T08:20:59;11.77;;;4.70;;
29202;SDS011;16245;51.170;4.884;2023-03-19T08:23:24;9.45;;;4.35;;
29202;SDS011;16245;51.170;4.884;2023-03-19T08:25:51;12.80;;;3.92;;
29202;SDS011;16245;51.170;4.884;2023-03-19T08:28:17;9.02;;;4.32;;
29202;SDS011;16245;51.170;4.884;2023-03-19T08:30:43;8.02;;;3.90;;
29202;SDS011;16245;51.170;4.884;2023-03-19T08:33:10;9.68;;;3.78;;
29202;SDS011;16245;51.170;4.884;2023-03-19T08:35:35;10.45;;;3.80;;
29202;SDS011;16245;51.170;4.884;2023-03-19T08:38:01;11.13;;;3.85;;
29202;SDS011;16245;51.170;4.884;2023-03-19T08:40:27;11.35;;;4.07;;
29202;SDS011;16245;51.170;4.884;2023-03-19T08:42:53;13.77;;;4.03;;
29202;SDS011;16245;51.170;4.884;2023-03-19T08:45:20;7.95;;;3.40;;
29202;SDS011;16245;51.170;4.884;2023-03-19T08:47:46;10.90;;;4.38;;
29202;SDS011;16245;51.170;4.884;2023-03-19T08:50:13;11.05;;;4.72;;
29202;SDS011;16245;51.170;4.884;2023-03-19T08:52:39;11.70;;;4.43;;
29202;SDS011;16245;51.170;4.884;2023-03-19T08:55:05;10.00;;;4.03;;
29202;SDS011;16245;51.170;4.884;2023-03-19T08:57:32;15.10;;;4.80;;
29202;SDS011;16245;51.170;4.884;2023-03-19T08:59:58;13.60;;;3.95;;
29202;SDS011;16245;51.170;4.884;2023-03-19T09:02:24;14.57;;;4.25;;
29202;SDS011;16245;51.170;4.884;2023-03-19T09:04:49;9.82;;;4.38;;
29202;SDS011;16245;51.170;4.884;2023-03-19T09:07:15;13.40;;;3.92;;
29202;SDS011;16245;51.170;4.884;2023-03-19T09:09:41;10.60;;;3.75;;
29202;SDS011;16245;51.170;4.884;2023-03-19T09:12:08;9.15;;;3.47;;
29202;SDS011;16245;51.170;4.884;2023-03-19T09:14:35;15.25;;;4.13;;
29202;SDS011;16245;51.170;4.884;2023-03-19T09:17:01;11.00;;;3.90;;
29202;SDS011;16245;51.170;4.884;2023-03-19T09:19:27;12.60;;;4.32;;
29202;SDS011;16245;51.170;4.884;2023-03-19T09:21:53;13.07;;;3.88;;
29202;SDS011;16245;51.170;4.884;2023-03-19T09:24:19;15.13;;;4.95;;
29202;SDS011;16245;51.170;4.884;2023-03-19T09:26:45;8.13;;;3.30;;
29202;SDS011;16245;51.170;4.884;2023-03-19T09:29:11;8.65;;;3.28;;
29202;SDS011;16245;51.170;4.884;2023-03-19T09:31:37;10.55;;;4.15;;
29202;SDS011;16245;51.170;4.884;2023-03-19T09:34:02;11.75;;;3.95;;
29202;SDS011;16245;51.170;4.884;2023-03-19T09:36:28;8.20;;;3.08;;
29202;SDS011;16245;51.170;4.884;2023-03-19T09:38:54;9.93;;;2.97;;
29202;SDS011;16245;51.170;4.884;2023-03-19T09:44:50;5.53;;;2.88;;
29202;SDS011;16245;51.170;4.884;2023-03-19T09:49:39;6.80;;;2.88;;
29202;SDS011;16245;51.170;4.884;2023-03-19T09:54:46;4.65;;;2.50;;
29202;SDS011;16245;51.170;4.884;2023-03-19T09:57:16;10.23;;;3.00;;
29202;SDS011;16245;51.170;4.884;2023-03-19T09:59:42;5.43;;;2.47;;
29202;SDS011;16245;51.170;4.884;2023-03-19T10:07:18;8.70;;;2.97;;
29202;SDS011;16245;51.170;4.884;2023-03-19T10:12:30;8.13;;;2.33;;
29202;SDS011;16245;51.170;4.884;2023-03-19T10:20:46;5.78;;;2.70;;
29202;SDS011;16245;51.170;4.884;2023-03-19T10:26:20;8.02;;;1.85;;
29202;SDS011;16245;51.170;4.884;2023-03-19T10:31:29;5.55;;;1.63;;
29202;SDS011;16245;51.170;4.884;2023-03-19T10:34:33;6.53;;;1.73;;
29202;SDS011;16245;51.170;4.884;2023-03-19T10:37:11;8.95;;;2.40;;
29202;SDS011;16245;51.170;4.884;2023-03-19T10:39:44;6.88;;;2.10;;
29202;SDS011;16245;51.170;4.884;2023-03-19T10:45:13;9.57;;;3.35;;
29202;SDS011;16245;51.170;4.884;2023-03-19T10:47:57;9.02;;;2.72;;
29202;SDS011;16245;51.170;4.884;2023-03-19T10:50:31;10.05;;;3.10;;
29202;SDS011;16245;51.170;4.884;2023-03-19T10:56:39;8.57;;;2.80;;
29202;SDS011;16245;51.170;4.884;2023-03-19T10:58:54;4.97;;;2.88;;
29202;SDS011;16245;51.170;4.884;2023-03-19T11:01:27;9.32;;;2.58;;
29202;SDS011;16245;51.170;4.884;2023-03-19T11:04:01;7.18;;;2.83;;
29202;SDS011;16245;51.170;4.884;2023-03-19T11:06:38;12.65;;;4.35;;
29202;SDS011;16245;51.170;4.884;2023-03-19T11:11:43;10.55;;;4.25;;
29202;SDS011;16245;51.170;4.884;2023-03-19T11:14:14;13.38;;;4.68;;
29202;SDS011;16245;51.170;4.884;2023-03-19T11:16:55;9.50;;;3.97;;
29202;SDS011;16245;51.170;4.884;2023-03-19T11:19:33;8.70;;;3.90;;
29202;SDS011;16245;51.170;4.884;2023-03-19T11:22:07;10.43;;;4.28;;
29202;SDS011;16245;51.170;4.884;2023-03-19T11:24:38;10.85;;;4.25;;
29202;SDS011;16245;51.170;4.884;2023-03-19T11:27:05;9.00;;;4.43;;
29202;SDS011;16245;51.170;4.884;2023-03-19T11:29:35;9.90;;;4.18;;
29202;SDS011;16245;51.170;4.884;2023-03-19T11:32:12;10.50;;;5.57;;
29202;SDS011;16245;51.170;4.884;2023-03-19T11:35:02;11.55;;;4.90;;
29202;SDS011;16245;51.170;4.884;2023-03-19T11:37:56;9.48;;;4.22;;
29202;SDS011;16245;51.170;4.884;2023-03-19T11:40:37;10.63;;;5.75;;
29202;SDS011;16245;51.170;4.884;2023-03-19T11:52:15;10.27;;;4.30;;
29202;SDS011;16245;51.170;4.884;2023-03-19T11:54:14;12.95;;;3.92;;
29202;SDS011;16245;51.170;4.884;2023-03-19T11:56:47;6.88;;;3.30;;
29202;SDS011;16245;51.170;4.884;2023-03-19T12:10:44;12.85;;;5.68;;
29202;SDS011;16245;51.170;4.884;2023-03-19T12:13:33;15.07;;;6.07;;
29202;SDS011;16245;51.170;4.884;2023-03-19T12:27:21;10.73;;;5.18;;
29202;SDS011;16245;51.170;4.884;2023-03-19T12:30:11;10.85;;;5.70;;
29202;SDS011;16245;51.170;4.884;2023-03-19T12:32:44;11.23;;;5.55;;
29202;SDS011;16245;51.170;4.884;2023-03-19T12:35:23;9.73;;;4.78;;
29202;SDS011;16245;51.170;4.884;2023-03-19T12:40:57;11.32;;;4.97;;
29202;SDS011;16245;51.170;4.884;2023-03-19T12:43:29;8.10;;;4.63;;
29202;SDS011;16245;51.170;4.884;2023-03-19T12:46:15;11.05;;;4.60;;
29202;SDS011;16245;51.170;4.884;2023-03-19T12:48:49;13.45;;;5.40;;
29202;SDS011;16245;51.170;4.884;2023-03-19T12:51:34;11.95;;;6.50;;
29202;SDS011;16245;51.170;4.884;2023-03-19T12:57:14;10.75;;;5.28;;
29202;SDS011;16245;51.170;4.884;2023-03-19T12:59:54;12.25;;;6.53;;
29202;SDS011;16245;51.170;4.884;2023-03-19T13:05:25;13.38;;;6.65;;
29202;SDS011;16245;51.170;4.884;2023-03-19T13:07:58;12.70;;;8.07;;
29202;SDS011;16245;51.170;4.884;2023-03-19T13:10:44;13.00;;;7.93;;
29202;SDS011;16245;51.170;4.884;2023-03-19T13:15:59;20.48;;;8.90;;
29202;SDS011;16245;51.170;4.884;2023-03-19T13:23:36;12.55;;;9.43;;
29202;SDS011;16245;51.170;4.884;2023-03-19T13:26:06;15.13;;;11.30;;
29202;SDS011;16245;51.170;4.884;2023-03-19T13:28:35;17.52;;;13.23;;
29202;SDS011;16245;51.170;4.884;2023-03-19T13:31:06;18.40;;;13.68;;
29202;SDS011;16245;51.170;4.884;2023-03-19T13:33:48;25.02;;;14.63;;
29202;SDS011;16245;51.170;4.884;2023-03-19T13:36:29;18.15;;;15.02;;
29202;SDS011;16245;51.170;4.884;2023-03-19T13:39:00;17.33;;;13.15;;
29202;SDS011;16245;51.170;4.884;2023-03-19T13:44:27;22.25;;;12.52;;
29202;SDS011;16245;51.170;4.884;2023-03-19T13:47:35;14.30;;;10.98;;
29202;SDS011;16245;51.170;4.884;2023-03-19T14:03:53;14.30;;;8.30;;
29202;SDS011;16245;51.170;4.884;2023-03-19T14:06:03;10.75;;;6.20;;
29202;SDS011;16245;51.170;4.884;2023-03-19T14:08:43;10.52;;;6.32;;
29202;SDS011;16245;51.170;4.884;2023-03-19T14:11:19;11.82;;;6.85;;
29202;SDS011;16245;51.170;4.884;2023-03-19T14:13:52;11.15;;;6.82;;
29202;SDS011;16245;51.170;4.884;2023-03-19T14:16:35;8.93;;;5.60;;
29202;SDS011;16245;51.170;4.884;2023-03-19T14:19:09;12.32;;;6.03;;
29202;SDS011;16245;51.170;4.884;2023-03-19T14:24:28;12.07;;;6.90;;
29202;SDS011;16245;51.170;4.884;2023-03-19T14:27:19;12.65;;;7.68;;
29202;SDS011;16245;51.170;4.884;2023-03-19T14:29:57;10.32;;;6.93;;
29202;SDS011;16245;51.170;4.884;2023-03-19T14:32:29;14.02;;;7.30;;
29202;SDS011;16245;51.170;4.884;2023-03-19T14:35:00;14.13;;;7.63;;
29202;SDS011;16245;51.170;4.884;2023-03-19T14:37:49;12.50;;;6.40;;
29202;SDS011;16245;51.170;4.884;2023-03-19T14:40:20;11.55;;;6.30;;
29202;SDS011;16245;51.170;4.884;2023-03-19T14:45:48;14.32;;;11.13;;
29202;SDS011;16245;51.170;4.884;2023-03-19T14:56:48;23.15;;;15.77;;
29202;SDS011;16245;51.170;4.884;2023-03-19T14:59:14;17.98;;;14.85;;
29202;SDS011;16245;51.170;4.884;2023-03-19T15:01:47;22.20;;;15.05;;
29202;SDS011;16245;51.170;4.884;2023-03-19T15:04:15;16.00;;;12.82;;
29202;SDS011;16245;51.170;4.884;2023-03-19T15:06:43;15.90;;;10.50;;
29202;SDS011;16245;51.170;4.884;2023-03-19T15:09:18;15.90;;;9.93;;
29202;SDS011;16245;51.170;4.884;2023-03-19T15:17:29;17.20;;;12.32;;
29202;SDS011;16245;51.170;4.884;2023-03-19T15:19:59;13.93;;;11.38;;
29202;SDS011;16245;51.170;4.884;2023-03-19T15:22:30;15.90;;;13.02;;
29202;SDS011;16245;51.170;4.884;2023-03-19T15:25:04;20.02;;;15.07;;
29202;SDS011;16245;51.170;4.884;2023-03-19T15:27:32;18.35;;;14.73;;
29202;SDS011;16245;51.170;4.884;2023-03-19T15:29:58;20.02;;;15.63;;
29202;SDS011;16245;51.170;4.884;2023-03-19T15:32:37;18.40;;;15.50;;
29202;SDS011;16245;51.170;4.884;2023-03-19T15:35:06;20.73;;;16.63;;
29202;SDS011;16245;51.170;4.884;2023-03-19T15:37:35;18.83;;;15.05;;
29202;SDS011;16245;51.170;4.884;2023-03-19T15:40:15;17.10;;;12.15;;
29202;SDS011;16245;51.170;4.884;2023-03-19T15:42:44;15.80;;;12.02;;
29202;SDS011;16245;51.170;4.884;2023-03-19T15:45:13;13.80;;;10.52;;
29202;SDS011;16245;51.170;4.884;2023-03-19T15:47:51;14.07;;;8.82;;
29202;SDS011;16245;51.170;4.884;2023-03-19T15:50:32;12.85;;;9.98;;
29202;SDS011;16245;51.170;4.884;2023-03-19T15:53:23;14.43;;;8.43;;
29202;SDS011;16245;51.170;4.884;2023-03-19T15:55:49;12.32;;;8.38;;
29202;SDS011;16245;51.170;4.884;2023-03-19T15:58:23;13.23;;;8.30;;
29202;SDS011;16245;51.170;4.884;2023-03-19T16:00:52;12.27;;;8.65;;
29202;SDS011;16245;51.170;4.884;2023-03-19T16:03:24;13.85;;;8.77;;
29202;SDS011;16245;51.170;4.884;2023-03-19T16:06:00;10.90;;;9.15;;
29202;SDS011;16245;51.170;4.884;2023-03-19T16:08:28;11.25;;;8.40;;
29202;SDS011;16245;51.170;4.884;2023-03-19T16:10:54;11.60;;;7.90;;
29202;SDS011;16245;51.170;4.884;2023-03-19T16:14:15;12.07;;;7.50;;
29202;SDS011;16245;51.170;4.884;2023-03-19T16:16:48;8.48;;;7.55;;
29202;SDS011;16245;51.170;4.884;2023-03-19T16:19:28;9.70;;;7.10;;
29202;SDS011;16245;51.170;4.884;2023-03-19T16:21:59;10.13;;;6.65;;
29202;SDS011;16245;51.170;4.884;2023-03-19T16:24:30;12.02;;;7.10;;
29202;SDS011;16245;51.170;4.884;2023-03-19T16:27:47;8.63;;;6.97;;
29202;SDS011;16245;51.170;4.884;2023-03-19T16:29:58;10.10;;;7.05;;
29202;SDS011;16245;51.170;4.884;2023-03-19T16:32:24;7.88;;;6.85;;
29202;SDS011;16245;51.170;4.884;2023-03-19T16:45:24;8.82;;;6.72;;
29202;SDS011;16245;51.170;4.884;2023-03-19T16:47:55;7.97;;;7.00;;
29202;SDS011;16245;51.170;4.884;2023-03-19T16:50:27;9.57;;;7.20;;
29202;SDS011;16245;51.170;4.884;2023-03-19T16:52:56;10.88;;;6.80;;
29202;SDS011;16245;51.170;4.884;2023-03-19T16:55:24;9.13;;;7.55;;
29202;SDS011;16245;51.170;4.884;2023-03-19T16:58:10;7.13;;;6.05;;
29202;SDS011;16245;51.170;4.884;2023-03-19T17:00:39;8.40;;;6.60;;
29202;SDS011;16245;51.170;4.884;2023-03-19T17:03:14;7.82;;;6.63;;
29202;SDS011;16245;51.170;4.884;2023-03-19T17:05:41;7.47;;;5.70;;
29202;SDS011;16245;51.170;4.884;2023-03-19T17:08:08;8.07;;;6.18;;